sensor_id;sensor_type;location;lat;lon;timestamp;pressure;altitude;pressure_sealevel;temperature;humidity
44075;BME280;60448;44.956;7.660;2022-10-16T00:00:00;99160;;;21.4;65.8
44075;BME280;60448;44.956;7.660;2022-10-16T00:05:00;99160;;;21.4;65.8
44075;BME280;60448;44.956;7.660;2022-10-16T00:10:00;99160;;;21.4;65.9
44075;BME280;60448;44.956;7.660;2022-10-16T00:15:00;99160;;;21.4;65.9
44075;BME280;60448;44.956;7.660;2022-10-16T00:20:00;99160;;;21.4;65.9
44075;BME280;60448;44.956;7.660;2022-10-16T00:25:00;99160;;;21.4;65.9
44075;BME280;60448;44.956;7.660;2022-10-16T00:30:00;99160;;;21.4;65.9
44075;BME280;60448;44.956;7.660;2022-10-16T00:35:00;99160;;;21.4;65.9
44075;BME280;60448;44.956;7.660;2022-10-16T00:40:00;99170;;;21.4;66.0
44075;BME280;60448;44.956;7.660;2022-10-16T00:45:00;99170;;;21.4;66.0
44075;BME280;60448;44.956;7.660;2022-10-16T00:50:32;99170;;;21.4;66.0
44075;BME280;60448;44.956;7.660;2022-10-16T00:55:00;99180;;;21.4;66.0
44075;BME280;60448;44.956;7.660;2022-10-16T01:00:00;99180;;;21.4;66.1
44075;BME280;60448;44.956;7.660;2022-10-16T01:05:00;99180;;;21.4;66.1
44075;BME280;60448;44.956;7.660;2022-10-16T01:10:10;99180;;;21.4;66.1
44075;BME280;60448;44.956;7.660;2022-10-16T01:15:10;99180;;;21.4;66.1
44075;BME280;60448;44.956;7.660;2022-10-16T01:25:00;99180;;;21.4;66.1
44075;BME280;60448;44.956;7.660;2022-10-16T01:40:00;99180;;;21.3;66.2
44075;BME280;60448;44.956;7.660;2022-10-16T01:45:00;99180;;;21.4;66.0
44075;BME280;60448;44.956;7.660;2022-10-16T01:50:00;99180;;;21.4;66.0
44075;BME280;60448;44.956;7.660;2022-10-16T01:55:00;99180;;;21.4;66.0
44075;BME280;60448;44.956;7.660;2022-10-16T02:00:02;99180;;;21.3;66.2
44075;BME280;60448;44.956;7.660;2022-10-16T02:05:03;99180;;;21.3;66.2
44075;BME280;60448;44.956;7.660;2022-10-16T02:10:00;99180;;;21.3;66.2
44075;BME280;60448;44.956;7.660;2022-10-16T02:15:01;99190;;;21.3;66.3
44075;BME280;60448;44.956;7.660;2022-10-16T02:20:00;99190;;;21.3;66.3
44075;BME280;60448;44.956;7.660;2022-10-16T02:30:03;99190;;;21.3;66.3
44075;BME280;60448;44.956;7.660;2022-10-16T02:35:00;99190;;;21.3;66.4
44075;BME280;60448;44.956;7.660;2022-10-16T02:40:00;99190;;;21.3;66.4
44075;BME280;60448;44.956;7.660;2022-10-16T02:45:00;99190;;;21.3;66.4
44075;BME280;60448;44.956;7.660;2022-10-16T02:50:00;99210;;;21.3;66.5
44075;BME280;60448;44.956;7.660;2022-10-16T02:55:00;99210;;;21.3;66.5
44075;BME280;60448;44.956;7.660;2022-10-16T03:00:00;99210;;;21.3;66.5
44075;BME280;60448;44.956;7.660;2022-10-16T03:05:00;99220;;;21.3;66.6
44075;BME280;60448;44.956;7.660;2022-10-16T03:10:00;99220;;;21.3;66.6
44075;BME280;60448;44.956;7.660;2022-10-16T03:15:00;99220;;;21.3;66.6
44075;BME280;60448;44.956;7.660;2022-10-16T03:20:00;99220;;;21.2;66.7
44075;BME280;60448;44.956;7.660;2022-10-16T03:25:00;99220;;;21.2;66.7
44075;BME280;60448;44.956;7.660;2022-10-16T03:30:00;99220;;;21.2;66.7
44075;BME280;60448;44.956;7.660;2022-10-16T03:35:00;99230;;;21.2;66.8
44075;BME280;60448;44.956;7.660;2022-10-16T03:40:00;99230;;;21.2;66.8
44075;BME280;60448;44.956;7.660;2022-10-16T03:45:00;99230;;;21.2;66.8
44075;BME280;60448;44.956;7.660;2022-10-16T03:50:00;99230;;;21.2;66.8
44075;BME280;60448;44.956;7.660;2022-10-16T03:55:00;99230;;;21.2;66.8
44075;BME280;60448;44.956;7.660;2022-10-16T04:00:00;99230;;;21.2;66.8
44075;BME280;60448;44.956;7.660;2022-10-16T04:05:00;99240;;;21.3;66.8
44075;BME280;60448;44.956;7.660;2022-10-16T04:10:00;99240;;;21.2;66.8
44075;BME280;60448;44.956;7.660;2022-10-16T04:15:00;99240;;;21.2;66.8
44075;BME280;60448;44.956;7.660;2022-10-16T04:20:00;99240;;;21.2;66.8
44075;BME280;60448;44.956;7.660;2022-10-16T04:25:00;99260;;;21.2;66.8
44075;BME280;60448;44.956;7.660;2022-10-16T04:30:00;99260;;;21.2;66.8
44075;BME280;60448;44.956;7.660;2022-10-16T04:35:00;99260;;;21.2;66.8
44075;BME280;60448;44.956;7.660;2022-10-16T04:40:00;99270;;;21.2;66.9
44075;BME280;60448;44.956;7.660;2022-10-16T04:45:00;99270;;;21.2;66.9
44075;BME280;60448;44.956;7.660;2022-10-16T04:50:00;99270;;;21.2;66.9
44075;BME280;60448;44.956;7.660;2022-10-16T04:55:01;99280;;;21.2;66.9
44075;BME280;60448;44.956;7.660;2022-10-16T05:00:00;99280;;;21.2;66.9
44075;BME280;60448;44.956;7.660;2022-10-16T05:05:00;99280;;;21.2;66.9
44075;BME280;60448;44.956;7.660;2022-10-16T05:10:01;99280;;;21.1;67.0
44075;BME280;60448;44.956;7.660;2022-10-16T05:15:00;99280;;;21.1;67.0
44075;BME280;60448;44.956;7.660;2022-10-16T05:20:00;99280;;;21.1;67.0
44075;BME280;60448;44.956;7.660;2022-10-16T05:25:00;99290;;;21.2;67.0
44075;BME280;60448;44.956;7.660;2022-10-16T05:30:00;99290;;;21.1;67.1
44075;BME280;60448;44.956;7.660;2022-10-16T05:35:00;99290;;;21.1;67.1
44075;BME280;60448;44.956;7.660;2022-10-16T05:40:00;99290;;;21.1;67.1
44075;BME280;60448;44.956;7.660;2022-10-16T05:45:00;99290;;;21.1;67.1
44075;BME280;60448;44.956;7.660;2022-10-16T05:50:00;99290;;;21.1;67.1
44075;BME280;60448;44.956;7.660;2022-10-16T05:55:00;99290;;;21.1;67.1
44075;BME280;60448;44.956;7.660;2022-10-16T06:00:00;99300;;;21.1;67.1
44075;BME280;60448;44.956;7.660;2022-10-16T06:05:00;99300;;;21.1;67.1
44075;BME280;60448;44.956;7.660;2022-10-16T06:10:00;99300;;;21.1;67.1
44075;BME280;60448;44.956;7.660;2022-10-16T06:15:00;99320;;;21.1;67.0
44075;BME280;60448;44.956;7.660;2022-10-16T06:20:00;99320;;;21.1;67.0
44075;BME280;60448;44.956;7.660;2022-10-16T06:25:00;99320;;;21.1;67.0
44075;BME280;60448;44.956;7.660;2022-10-16T06:30:00;99340;;;21.1;66.9
44075;BME280;60448;44.956;7.660;2022-10-16T06:35:00;99340;;;21.1;66.9
44075;BME280;60448;44.956;7.660;2022-10-16T06:40:00;99340;;;21.1;66.9
44075;BME280;60448;44.956;7.660;2022-10-16T06:45:00;99360;;;21.1;67.2
44075;BME280;60448;44.956;7.660;2022-10-16T06:50:00;99360;;;21.1;67.2
44075;BME280;60448;44.956;7.660;2022-10-16T06:55:00;99360;;;21.1;67.2
44075;BME280;60448;44.956;7.660;2022-10-16T07:00:00;99380;;;21.2;67.1
44075;BME280;60448;44.956;7.660;2022-10-16T07:05:00;99380;;;21.1;67.1
44075;BME280;60448;44.956;7.660;2022-10-16T07:10:00;99380;;;21.1;67.1
44075;BME280;60448;44.956;7.660;2022-10-16T07:15:00;99380;;;21.1;67.1
44075;BME280;60448;44.956;7.660;2022-10-16T07:20:00;99400;;;21.1;66.9
44075;BME280;60448;44.956;7.660;2022-10-16T07:25:00;99400;;;21.1;66.9
44075;BME280;60448;44.956;7.660;2022-10-16T07:30:00;99400;;;21.1;66.9
44075;BME280;60448;44.956;7.660;2022-10-16T07:35:00;99410;;;21.1;66.7
44075;BME280;60448;44.956;7.660;2022-10-16T07:40:00;99410;;;21.1;66.7
44075;BME280;60448;44.956;7.660;2022-10-16T07:45:01;99410;;;21.1;66.7
44075;BME280;60448;44.956;7.660;2022-10-16T07:50:00;99420;;;21.2;66.4
44075;BME280;60448;44.956;7.660;2022-10-16T07:55:00;99420;;;21.2;66.4
44075;BME280;60448;44.956;7.660;2022-10-16T08:00:00;99420;;;21.2;66.4
44075;BME280;60448;44.956;7.660;2022-10-16T08:05:00;99420;;;21.2;66.4
44075;BME280;60448;44.956;7.660;2022-10-16T08:10:00;99420;;;21.2;66.4
44075;BME280;60448;44.956;7.660;2022-10-16T08:15:00;99420;;;21.2;66.4
44075;BME280;60448;44.956;7.660;2022-10-16T08:20:00;99420;;;21.2;66.4
44075;BME280;60448;44.956;7.660;2022-10-16T08:25:00;99420;;;21.2;66.4
44075;BME280;60448;44.956;7.660;2022-10-16T08:30:00;99420;;;21.2;66.4
44075;BME280;60448;44.956;7.660;2022-10-16T08:35:00;99420;;;21.2;66.4
44075;BME280;60448;44.956;7.660;2022-10-16T08:40:00;99420;;;21.2;66.4
44075;BME280;60448;44.956;7.660;2022-10-16T08:50:02;99420;;;21.2;66.4
44075;BME280;60448;44.956;7.660;2022-10-16T08:55:00;99420;;;21.2;66.4
44075;BME280;60448;44.956;7.660;2022-10-16T09:00:00;99420;;;21.2;66.4
44075;BME280;60448;44.956;7.660;2022-10-16T09:15:02;99420;;;21.2;66.4
44075;BME280;60448;44.956;7.660;2022-10-16T09:25:00;99420;;;21.2;66.4
44075;BME280;60448;44.956;7.660;2022-10-16T09:30:00;99420;;;21.2;66.4
44075;BME280;60448;44.956;7.660;2022-10-16T09:35:00;99420;;;21.2;66.4
44075;BME280;60448;44.956;7.660;2022-10-16T09:40:00;99420;;;21.2;66.4
44075;BME280;60448;44.956;7.660;2022-10-16T09:45:00;99420;;;21.2;66.4
44075;BME280;60448;44.956;7.660;2022-10-16T09:50:03;99420;;;21.2;66.4
44075;BME280;60448;44.956;7.660;2022-10-16T09:55:02;99420;;;21.2;66.4
44075;BME280;60448;44.956;7.660;2022-10-16T10:00:00;99420;;;21.2;66.4
44075;BME280;60448;44.956;7.660;2022-10-16T10:05:00;99420;;;21.2;66.4
44075;BME280;60448;44.956;7.660;2022-10-16T10:10:01;99420;;;21.2;66.4
44075;BME280;60448;44.956;7.660;2022-10-16T10:15:04;99420;;;21.2;66.4
44075;BME280;60448;44.956;7.660;2022-10-16T10:30:03;99420;;;21.2;66.4
44075;BME280;60448;44.956;7.660;2022-10-16T10:35:05;99420;;;21.2;66.4
44075;BME280;60448;44.956;7.660;2022-10-16T10:40:11;99420;;;21.2;66.4
44075;BME280;60448;44.956;7.660;2022-10-16T10:50:07;99420;;;21.2;66.4
44075;BME280;60448;44.956;7.660;2022-10-16T11:00:02;99420;;;21.2;66.4
44075;BME280;60448;44.956;7.660;2022-10-16T11:10:04;99420;;;21.2;66.4
44075;BME280;60448;44.956;7.660;2022-10-16T11:15:04;99420;;;21.2;66.4
44075;BME280;60448;44.956;7.660;2022-10-16T11:20:19;99420;;;21.2;66.4
44075;BME280;60448;44.956;7.660;2022-10-16T11:30:01;99420;;;21.2;66.4
44075;BME280;60448;44.956;7.660;2022-10-16T11:35:02;99420;;;21.2;66.4
44075;BME280;60448;44.956;7.660;2022-10-16T11:40:03;99420;;;21.2;66.4
44075;BME280;60448;44.956;7.660;2022-10-16T11:45:10;99420;;;21.2;66.4
44075;BME280;60448;44.956;7.660;2022-10-16T11:50:02;99420;;;21.2;66.4
44075;BME280;60448;44.956;7.660;2022-10-16T12:00:03;99420;;;21.2;66.4
44075;BME280;60448;44.956;7.660;2022-10-16T12:10:09;99420;;;21.2;66.4
44075;BME280;60448;44.956;7.660;2022-10-16T12:15:01;99420;;;21.2;66.4
44075;BME280;60448;44.956;7.660;2022-10-16T12:20:18;99420;;;21.2;66.4
44075;BME280;60448;44.956;7.660;2022-10-16T12:25:00;99420;;;21.2;66.4
44075;BME280;60448;44.956;7.660;2022-10-16T12:30:00;99420;;;21.2;66.4
44075;BME280;60448;44.956;7.660;2022-10-16T12:35:03;99420;;;21.2;66.4
44075;BME280;60448;44.956;7.660;2022-10-16T12:40:10;99420;;;21.2;66.4
44075;BME280;60448;44.956;7.660;2022-10-16T12:45:00;99420;;;21.2;66.4
44075;BME280;60448;44.956;7.660;2022-10-16T12:50:00;99420;;;21.2;66.4
44075;BME280;60448;44.956;7.660;2022-10-16T12:55:00;99420;;;21.2;66.4
44075;BME280;60448;44.956;7.660;2022-10-16T13:00:03;99420;;;21.2;66.4
44075;BME280;60448;44.956;7.660;2022-10-16T13:05:03;99420;;;21.2;66.4
44075;BME280;60448;44.956;7.660;2022-10-16T13:15:06;99420;;;21.2;66.4
44075;BME280;60448;44.956;7.660;2022-10-16T13:20:16;99420;;;21.2;66.4
44075;BME280;60448;44.956;7.660;2022-10-16T13:25:02;99420;;;21.2;66.4
44075;BME280;60448;44.956;7.660;2022-10-16T13:30:01;99420;;;21.2;66.4
44075;BME280;60448;44.956;7.660;2022-10-16T13:35:00;99420;;;21.2;66.4
44075;BME280;60448;44.956;7.660;2022-10-16T13:45:00;99420;;;21.2;66.4
44075;BME280;60448;44.956;7.660;2022-10-16T13:50:01;99420;;;21.2;66.4
44075;BME280;60448;44.956;7.660;2022-10-16T13:55:00;99420;;;21.2;66.4
44075;BME280;60448;44.956;7.660;2022-10-16T14:00:00;99420;;;21.2;66.4
44075;BME280;60448;44.956;7.660;2022-10-16T14:05:00;99420;;;21.2;66.4
44075;BME280;60448;44.956;7.660;2022-10-16T14:10:02;99420;;;21.2;66.4
44075;BME280;60448;44.956;7.660;2022-10-16T14:15:00;99420;;;21.2;66.4
44075;BME280;60448;44.956;7.660;2022-10-16T14:20:00;99420;;;21.2;66.4
44075;BME280;60448;44.956;7.660;2022-10-16T14:25:00;99420;;;21.2;66.4
44075;BME280;60448;44.956;7.660;2022-10-16T14:35:00;99420;;;21.2;66.4
44075;BME280;60448;44.956;7.660;2022-10-16T14:40:02;99420;;;21.2;66.4
44075;BME280;60448;44.956;7.660;2022-10-16T14:45:00;99420;;;21.2;66.4
44075;BME280;60448;44.956;7.660;2022-10-16T14:50:00;99420;;;21.2;66.4
44075;BME280;60448;44.956;7.660;2022-10-16T14:55:00;99420;;;21.2;66.4
44075;BME280;60448;44.956;7.660;2022-10-16T15:00:00;99420;;;21.2;66.4
44075;BME280;60448;44.956;7.660;2022-10-16T15:05:04;99420;;;21.2;66.4
44075;BME280;60448;44.956;7.660;2022-10-16T15:10:00;99420;;;21.2;66.4
44075;BME280;60448;44.956;7.660;2022-10-16T15:15:00;99420;;;21.2;66.4
44075;BME280;60448;44.956;7.660;2022-10-16T15:20:00;99420;;;21.2;66.4
44075;BME280;60448;44.956;7.660;2022-10-16T15:25:00;99420;;;21.2;66.4
44075;BME280;60448;44.956;7.660;2022-10-16T15:30:00;99420;;;21.2;66.4
44075;BME280;60448;44.956;7.660;2022-10-16T15:35:00;99420;;;21.2;66.4
44075;BME280;60448;44.956;7.660;2022-10-16T15:40:00;99420;;;21.2;66.4
44075;BME280;60448;44.956;7.660;2022-10-16T15:45:00;99420;;;21.2;66.4
44075;BME280;60448;44.956;7.660;2022-10-16T15:50:00;99420;;;21.2;66.4
44075;BME280;60448;44.956;7.660;2022-10-16T15:55:00;99420;;;21.2;66.4
44075;BME280;60448;44.956;7.660;2022-10-16T16:00:00;99420;;;21.2;66.4
44075;BME280;60448;44.956;7.660;2022-10-16T16:05:00;99420;;;21.2;66.4
44075;BME280;60448;44.956;7.660;2022-10-16T16:10:00;99420;;;21.2;66.4
44075;BME280;60448;44.956;7.660;2022-10-16T16:15:00;99420;;;21.2;66.4
44075;BME280;60448;44.956;7.660;2022-10-16T16:20:00;99420;;;21.2;66.4
44075;BME280;60448;44.956;7.660;2022-10-16T16:25:00;99420;;;21.2;66.4
44075;BME280;60448;44.956;7.660;2022-10-16T16:30:00;99420;;;21.2;66.4
44075;BME280;60448;44.956;7.660;2022-10-16T16:35:00;99420;;;21.2;66.4
44075;BME280;60448;44.956;7.660;2022-10-16T16:40:00;99420;;;21.2;66.4
44075;BME280;60448;44.956;7.660;2022-10-16T16:45:00;99420;;;21.2;66.4
44075;BME280;60448;44.956;7.660;2022-10-16T16:50:00;99420;;;21.2;66.4
44075;BME280;60448;44.956;7.660;2022-10-16T16:55:00;99420;;;21.2;66.4
44075;BME280;60448;44.956;7.660;2022-10-16T17:00:00;99420;;;21.2;66.4
44075;BME280;60448;44.956;7.660;2022-10-16T17:05:00;99420;;;21.2;66.4
44075;BME280;60448;44.956;7.660;2022-10-16T17:10:00;99420;;;21.2;66.4
44075;BME280;60448;44.956;7.660;2022-10-16T17:15:00;99420;;;21.2;66.4
44075;BME280;60448;44.956;7.660;2022-10-16T17:20:00;99420;;;21.2;66.4
44075;BME280;60448;44.956;7.660;2022-10-16T17:25:02;99420;;;21.2;66.4
44075;BME280;60448;44.956;7.660;2022-10-16T17:30:00;99420;;;21.2;66.4
44075;BME280;60448;44.956;7.660;2022-10-16T17:35:00;99420;;;21.2;66.4
44075;BME280;60448;44.956;7.660;2022-10-16T17:40:00;99420;;;21.2;66.4
44075;BME280;60448;44.956;7.660;2022-10-16T17:45:00;99420;;;21.2;66.4
44075;BME280;60448;44.956;7.660;2022-10-16T17:50:00;99420;;;21.2;66.4
44075;BME280;60448;44.956;7.660;2022-10-16T17:55:00;99420;;;21.2;66.4
44075;BME280;60448;44.956;7.660;2022-10-16T18:00:00;99420;;;21.2;66.4
44075;BME280;60448;44.956;7.660;2022-10-16T18:05:00;99420;;;21.2;66.4
44075;BME280;60448;44.956;7.660;2022-10-16T18:10:00;99420;;;21.2;66.4
44075;BME280;60448;44.956;7.660;2022-10-16T18:15:00;99420;;;21.2;66.4
44075;BME280;60448;44.956;7.660;2022-10-16T18:20:00;99420;;;21.2;66.4
44075;BME280;60448;44.956;7.660;2022-10-16T18:25:01;99420;;;21.2;66.4
44075;BME280;60448;44.956;7.660;2022-10-16T18:30:00;99420;;;21.2;66.4
44075;BME280;60448;44.956;7.660;2022-10-16T18:35:00;99420;;;21.2;66.4
44075;BME280;60448;44.956;7.660;2022-10-16T18:40:00;99420;;;21.2;66.4
44075;BME280;60448;44.956;7.660;2022-10-16T18:45:00;99420;;;21.2;66.4
44075;BME280;60448;44.956;7.660;2022-10-16T18:50:00;99420;;;21.2;66.4
44075;BME280;60448;44.956;7.660;2022-10-16T18:55:00;99420;;;21.2;66.4
44075;BME280;60448;44.956;7.660;2022-10-16T19:00:00;99420;;;21.2;66.4
44075;BME280;60448;44.956;7.660;2022-10-16T19:05:00;99420;;;21.2;66.4
44075;BME280;60448;44.956;7.660;2022-10-16T19:10:00;99420;;;21.2;66.4
44075;BME280;60448;44.956;7.660;2022-10-16T19:15:00;99420;;;21.2;66.4
44075;BME280;60448;44.956;7.660;2022-10-16T19:20:00;99420;;;21.2;66.4
44075;BME280;60448;44.956;7.660;2022-10-16T19:25:00;99420;;;21.2;66.4
44075;BME280;60448;44.956;7.660;2022-10-16T19:30:00;99420;;;21.2;66.4
44075;BME280;60448;44.956;7.660;2022-10-16T19:35:00;99420;;;21.2;66.4
44075;BME280;60448;44.956;7.660;2022-10-16T19:40:00;99420;;;21.2;66.4
44075;BME280;60448;44.956;7.660;2022-10-16T19:45:00;99420;;;21.2;66.4
44075;BME280;60448;44.956;7.660;2022-10-16T19:50:00;99420;;;21.2;66.4
44075;BME280;60448;44.956;7.660;2022-10-16T19:55:00;99420;;;21.2;66.4
44075;BME280;60448;44.956;7.660;2022-10-16T20:00:03;99420;;;21.2;66.4
44075;BME280;60448;44.956;7.660;2022-10-16T20:05:00;99420;;;21.2;66.4
44075;BME280;60448;44.956;7.660;2022-10-16T20:10:00;99420;;;21.2;66.4
44075;BME280;60448;44.956;7.660;2022-10-16T20:15:00;99420;;;21.2;66.4
44075;BME280;60448;44.956;7.660;2022-10-16T20:20:00;99420;;;21.2;66.4
44075;BME280;60448;44.956;7.660;2022-10-16T20:25:00;99420;;;21.2;66.4
44075;BME280;60448;44.956;7.660;2022-10-16T20:30:00;99420;;;21.2;66.4
44075;BME280;60448;44.956;7.660;2022-10-16T20:35:00;99420;;;21.2;66.4
44075;BME280;60448;44.956;7.660;2022-10-16T20:40:00;99420;;;21.2;66.4
44075;BME280;60448;44.956;7.660;2022-10-16T20:45:00;99420;;;21.2;66.4
44075;BME280;60448;44.956;7.660;2022-10-16T20:50:00;99420;;;21.2;66.4
44075;BME280;60448;44.956;7.660;2022-10-16T20:55:00;99420;;;21.2;66.4
44075;BME280;60448;44.956;7.660;2022-10-16T21:00:00;99420;;;21.2;66.4
44075;BME280;60448;44.956;7.660;2022-10-16T21:05:00;99420;;;21.2;66.4
44075;BME280;60448;44.956;7.660;2022-10-16T21:10:00;99420;;;21.2;66.4
44075;BME280;60448;44.956;7.660;2022-10-16T21:15:00;99420;;;21.2;66.4
44075;BME280;60448;44.956;7.660;2022-10-16T21:20:00;99420;;;21.2;66.4
44075;BME280;60448;44.956;7.660;2022-10-16T21:25:00;99420;;;21.2;66.4
44075;BME280;60448;44.956;7.660;2022-10-16T21:30:00;99420;;;21.2;66.4
44075;BME280;60448;44.956;7.660;2022-10-16T21:35:00;99420;;;21.2;66.4
44075;BME280;60448;44.956;7.660;2022-10-16T21:40:00;99420;;;21.2;66.4
44075;BME280;60448;44.956;7.660;2022-10-16T21:45:00;99420;;;21.2;66.4
44075;BME280;60448;44.956;7.660;2022-10-16T21:50:00;99420;;;21.2;66.4
44075;BME280;60448;44.956;7.660;2022-10-16T21:55:00;99420;;;21.2;66.4
44075;BME280;60448;44.956;7.660;2022-10-16T22:00:00;99420;;;21.2;66.4
44075;BME280;60448;44.956;7.660;2022-10-16T22:05:00;99420;;;21.2;66.4
44075;BME280;60448;44.956;7.660;2022-10-16T22:10:00;99420;;;21.2;66.4
44075;BME280;60448;44.956;7.660;2022-10-16T22:15:00;99420;;;21.2;66.4
44075;BME280;60448;44.956;7.660;2022-10-16T22:20:00;99420;;;21.2;66.4
44075;BME280;60448;44.956;7.660;2022-10-16T22:25:01;99420;;;21.2;66.4
44075;BME280;60448;44.956;7.660;2022-10-16T22:30:00;99420;;;21.2;66.4
44075;BME280;60448;44.956;7.660;2022-10-16T22:35:00;99420;;;21.2;66.4
44075;BME280;60448;44.956;7.660;2022-10-16T22:40:00;99420;;;21.2;66.4
44075;BME280;60448;44.956;7.660;2022-10-16T22:45:00;99420;;;21.2;66.4
44075;BME280;60448;44.956;7.660;2022-10-16T22:50:00;99420;;;21.2;66.4
44075;BME280;60448;44.956;7.660;2022-10-16T22:55:00;99420;;;21.2;66.4
44075;BME280;60448;44.956;7.660;2022-10-16T23:00:00;99420;;;21.2;66.4
44075;BME280;60448;44.956;7.660;2022-10-16T23:05:00;99420;;;21.2;66.4
44075;BME280;60448;44.956;7.660;2022-10-16T23:10:00;99420;;;21.2;66.4
44075;BME280;60448;44.956;7.660;2022-10-16T23:15:00;99420;;;21.2;66.4
44075;BME280;60448;44.956;7.660;2022-10-16T23:20:00;99420;;;21.2;66.4
44075;BME280;60448;44.956;7.660;2022-10-16T23:25:00;99420;;;21.2;66.4
44075;BME280;60448;44.956;7.660;2022-10-16T23:30:00;99420;;;21.2;66.4
44075;BME280;60448;44.956;7.660;2022-10-16T23:35:00;99420;;;21.2;66.4
44075;BME280;60448;44.956;7.660;2022-10-16T23:40:00;99420;;;21.2;66.4
44075;BME280;60448;44.956;7.660;2022-10-16T23:45:00;99420;;;21.2;66.4
44075;BME280;60448;44.956;7.660;2022-10-16T23:50:00;99420;;;21.2;66.4
44075;BME280;60448;44.956;7.660;2022-10-16T23:55:00;99420;;;21.2;66.4
